Time;durP1;ratioP1;P1;durP2;ratioP2;P2;SDS_P1;SDS_P2;PMS_P1;PMS_P2;Temp;Humidity;BMP_temperature;BMP_pressure;BME280_temperature;BME280_humidity;BME280_pressure;Samples;Min_cycle;Max_cycle;Signal;HPM_P1;HPM_P2
2021/12/08 00:00:56;;;;;;;7.72;0.90;;;9.60;77.40;;;;;;4977245;28;20038;-93
2021/12/08 00:03:24;;;;;;;2.55;0.60;;;9.70;77.40;;;;;;4973540;28;20057;-95
2021/12/08 00:05:51;;;;;;;3.33;1.30;;;9.60;77.30;;;;;;4966853;28;20178;-91
2021/12/08 00:08:19;;;;;;;5.10;1.27;;;9.60;77.40;;;;;;4996949;28;20589;-96
2021/12/08 00:13:22;;;;;;;5.13;0.77;;;9.60;77.60;;;;;;4986398;28;20531;-93
2021/12/08 00:15:51;;;;;;;3.00;1.17;;;9.60;77.60;;;;;;4974780;28;20041;-95
2021/12/08 00:18:26;;;;;;;3.70;0.95;;;9.60;77.40;;;;;;4973159;28;20038;-95
2021/12/08 00:20:56;;;;;;;4.53;1.17;;;9.60;77.40;;;;;;4965669;28;20052;-95
2021/12/08 00:23:23;;;;;;;4.60;1.70;;;9.60;77.30;;;;;;4983451;28;20105;-93
2021/12/08 00:25:49;;;;;;;3.15;1.00;;;9.60;77.30;;;;;;4968279;28;20120;-95
2021/12/08 00:28:16;;;;;;;6.13;1.23;;;9.60;77.30;;;;;;4986073;28;20044;-96
2021/12/08 00:30:48;;;;;;;5.78;1.25;;;9.60;77.30;;;;;;4977562;28;20038;-96
2021/12/08 00:33:14;;;;;;;2.70;0.80;;;9.60;77.30;;;;;;4988668;28;20033;-96
2021/12/08 00:35:41;;;;;;;1.63;0.80;;;9.60;77.30;;;;;;4979145;28;20580;-95
2021/12/08 00:38:08;;;;;;;7.07;0.98;;;10.00;77.50;;;;;;5011204;28;20046;-92
2021/12/08 00:40:34;;;;;;;3.38;1.00;;;9.60;77.20;;;;;;4985400;28;20045;-96
2021/12/08 00:43:01;;;;;;;3.17;0.60;;;9.60;77.10;;;;;;4984516;28;20136;-95
2021/12/08 00:45:29;;;;;;;4.75;0.93;;;9.60;77.00;;;;;;4974919;28;20034;-91
2021/12/08 00:47:55;;;;;;;2.40;0.85;;;9.60;76.90;;;;;;4976009;28;20130;-95
2021/12/08 00:50:26;;;;;;;3.67;0.88;;;9.80;77.10;;;;;;4974466;28;20117;-95
2021/12/08 00:52:52;;;;;;;5.03;1.20;;;9.60;76.80;;;;;;4979524;28;20041;-95
2021/12/08 00:55:20;;;;;;;5.88;1.40;;;10.10;77.00;;;;;;4995899;28;20029;-94
2021/12/08 00:57:46;;;;;;;4.75;0.52;;;9.60;76.70;;;;;;4995926;28;20509;-96
2021/12/08 01:00:36;;;;;;;2.17;0.90;;;9.60;76.70;;;;;;5003264;28;20037;-95
2021/12/08 01:03:03;;;;;;;1.88;0.63;;;9.60;76.70;;;;;;4991285;28;20152;-93
2021/12/08 01:05:37;;;;;;;3.30;0.73;;;9.60;76.60;;;;;;4978468;28;20039;-95
2021/12/08 01:08:04;;;;;;;4.70;1.10;;;9.50;76.60;;;;;;4979154;28;20054;-96
2021/12/08 01:10:30;;;;;;;8.82;1.10;;;9.60;76.70;;;;;;4975140;28;20026;-90
2021/12/08 01:12:57;;;;;;;5.28;1.02;;;9.60;76.70;;;;;;4980392;28;20027;-96
2021/12/08 01:15:26;;;;;;;4.60;1.08;;;9.80;76.80;;;;;;5011458;28;20018;-91
2021/12/08 01:17:53;;;;;;;5.13;0.82;;;9.50;76.50;;;;;;4995711;28;20053;-91
2021/12/08 01:20:19;;;;;;;2.63;0.65;;;9.50;76.50;;;;;;5018299;28;20034;-95
2021/12/08 01:22:46;;;;;;;3.40;0.80;;;9.80;76.50;;;;;;4988519;28;20503;-92
2021/12/08 01:25:13;;;;;;;2.55;0.85;;;9.50;76.30;;;;;;4977676;28;20077;-93
2021/12/08 01:27:41;;;;;;;5.05;0.80;;;10.10;76.60;;;;;;4993015;28;20592;-94
2021/12/08 01:30:08;;;;;;;4.68;1.17;;;9.50;76.30;;;;;;5003639;28;20473;-96
2021/12/08 01:32:34;;;;;;;4.70;0.63;;;9.50;76.30;;;;;;4987046;28;20041;-94
2021/12/08 01:35:01;;;;;;;5.45;1.25;;;9.60;76.40;;;;;;5001408;28;20033;-93
2021/12/08 01:37:26;;;;;;;1.92;0.65;;;9.80;76.40;;;;;;4979615;28;20034;-94
2021/12/08 01:39:52;;;;;;;2.92;0.77;;;9.50;76.40;;;;;;4996645;28;20033;-95
2021/12/08 01:42:27;;;;;;;1.67;0.43;;;9.90;76.70;;;;;;4991445;28;20104;-95
2021/12/08 01:47:37;;;;;;;3.00;1.58;;;9.40;76.30;;;;;;4980973;28;19924;-95
2021/12/08 01:50:06;;;;;;;5.10;1.25;;;9.70;76.30;;;;;;5005094;28;20116;-96
2021/12/08 01:52:32;;;;;;;4.10;0.90;;;9.40;76.10;;;;;;4964729;28;20030;-94
2021/12/08 01:54:58;;;;;;;1.98;0.30;;;9.40;76.10;;;;;;4975068;28;20029;-94
2021/12/08 01:57:24;;;;;;;5.93;0.95;;;9.30;75.80;;;;;;5001109;28;20026;-96
2021/12/08 01:59:50;;;;;;;1.33;0.80;;;9.30;76.00;;;;;;4996010;28;20045;-96
2021/12/08 02:02:16;;;;;;;4.70;0.80;;;9.30;75.90;;;;;;4983245;28;20068;-95
2021/12/08 02:04:43;;;;;;;1.88;0.45;;;9.20;75.90;;;;;;5005811;28;20041;-95
2021/12/08 02:07:09;;;;;;;2.65;0.60;;;9.20;76.20;;;;;;4977520;28;20022;-95
2021/12/08 02:09:35;;;;;;;4.65;0.73;;;9.50;76.00;;;;;;4985727;28;20111;-94
2021/12/08 02:12:01;;;;;;;0.52;0.35;;;9.20;75.80;;;;;;4970358;28;20026;-91
2021/12/08 02:14:27;;;;;;;1.33;0.45;;;9.20;75.80;;;;;;4990042;28;20033;-91
2021/12/08 02:16:55;;;;;;;5.35;0.75;;;9.80;76.10;;;;;;4988333;28;20097;-95
2021/12/08 02:19:21;;;;;;;2.45;0.30;;;9.10;75.80;;;;;;5007281;28;20057;-95
2021/12/08 02:21:52;;;;;;;0.73;0.20;;;9.70;76.20;;;;;;4987682;28;20030;-94
2021/12/08 02:24:19;;;;;;;1.90;0.40;;;9.10;76.00;;;;;;4988678;28;20099;-94
2021/12/08 02:26:47;;;;;;;3.53;0.60;;;9.10;76.50;;;;;;5007289;28;20026;-92
2021/12/08 02:29:43;;;;;;;3.53;0.45;;;9.10;76.00;;;;;;5006225;28;20071;-95
2021/12/08 02:32:27;;;;;;;2.47;0.75;;;9.10;76.00;;;;;;4986700;28;20036;-96
2021/12/08 02:48:37;;;;;;;3.38;0.95;;;9.10;75.90;;;;;;5002126;28;20040;-94
2021/12/08 02:51:03;;;;;;;5.18;1.20;;;9.20;75.90;;;;;;4989440;28;20422;-95
2021/12/08 02:53:32;;;;;;;2.70;0.65;;;9.20;75.90;;;;;;4977538;28;20037;-94
2021/12/08 02:55:57;;;;;;;5.50;1.30;;;9.10;75.90;;;;;;4977047;28;20025;-95
2021/12/08 02:58:25;;;;;;;7.00;1.10;;;9.10;76.00;;;;;;4976776;28;20449;-96
2021/12/08 03:01:03;;;;;;;5.30;0.70;;;9.30;76.00;;;;;;4992089;28;20032;-94
2021/12/08 03:03:29;;;;;;;4.15;0.60;;;9.10;75.90;;;;;;4966438;28;20124;-94
2021/12/08 03:05:55;;;;;;;2.83;0.63;;;9.10;76.00;;;;;;4999788;28;20034;-94
2021/12/08 03:08:21;;;;;;;3.38;0.60;;;9.20;76.00;;;;;;4989437;28;20041;-94
2021/12/08 03:10:51;;;;;;;4.10;0.88;;;9.10;76.00;;;;;;4982817;28;20018;-94
2021/12/08 03:13:17;;;;;;;8.40;1.23;;;9.10;76.40;;;;;;4986160;28;20648;-93
2021/12/08 03:15:43;;;;;;;4.95;1.10;;;9.10;75.90;;;;;;4987569;28;20029;-95
2021/12/08 03:18:09;;;;;;;3.83;0.77;;;9.10;75.80;;;;;;5010970;28;20025;-94
2021/12/08 03:20:42;;;;;;;2.90;1.05;;;9.50;76.10;;;;;;5017027;28;20240;-91
2021/12/08 03:23:14;;;;;;;4.75;1.00;;;9.40;75.90;;;;;;5017872;28;20041;-95
2021/12/08 03:25:43;;;;;;;4.55;0.80;;;9.40;75.80;;;;;;4978525;28;20033;-95
2021/12/08 03:28:17;;;;;;;5.85;1.05;;;9.10;75.60;;;;;;4986890;28;20516;-96
2021/12/08 03:33:22;;;;;;;4.22;1.42;;;9.10;75.50;;;;;;5008292;28;20514;-95
2021/12/08 03:35:48;;;;;;;2.40;0.70;;;9.20;75.60;;;;;;5008991;28;20033;-93
2021/12/08 03:38:16;;;;;;;1.45;0.73;;;9.10;75.60;;;;;;4994630;28;20041;-93
2021/12/08 03:40:42;;;;;;;8.02;0.88;;;9.20;75.60;;;;;;4969823;28;20037;-95
2021/12/08 03:43:08;;;;;;;8.52;1.40;;;9.10;75.60;;;;;;4993034;28;20033;-95
2021/12/08 03:45:39;;;;;;;5.72;1.08;;;9.10;75.50;;;;;;4989535;28;20588;-94
2021/12/08 03:48:09;;;;;;;8.85;1.00;;;9.10;75.50;;;;;;4993447;28;20046;-95
2021/12/08 03:50:39;;;;;;;8.70;1.15;;;9.40;75.70;;;;;;5005615;28;20033;-95
2021/12/08 03:53:07;;;;;;;5.35;0.90;;;9.50;75.70;;;;;;4968984;28;20037;-95
2021/12/08 03:55:34;;;;;;;2.78;0.73;;;9.40;75.70;;;;;;4992753;28;20148;-94
2021/12/08 03:58:00;;;;;;;4.60;1.13;;;9.10;75.40;;;;;;4977450;28;20037;-93
2021/12/08 04:00:29;;;;;;;4.65;0.80;;;9.10;75.40;;;;;;4985432;28;20533;-94
2021/12/08 04:02:57;;;;;;;6.80;1.02;;;9.10;75.30;;;;;;4967019;28;20046;-94
2021/12/08 04:05:39;;;;;;;6.47;1.10;;;9.60;75.50;;;;;;5006252;28;20064;-94
2021/12/08 04:08:16;;;;;;;4.50;1.10;;;9.10;75.20;;;;;;4970123;28;20060;-96
2021/12/08 04:10:49;;;;;;;4.28;1.25;;;9.10;75.10;;;;;;4993012;28;20072;-95
2021/12/08 04:13:19;;;;;;;3.67;1.05;;;9.10;74.90;;;;;;4976507;28;20028;-93
2021/12/08 04:15:45;;;;;;;3.13;1.23;;;9.10;74.90;;;;;;4991531;28;20518;-93
2021/12/08 04:18:11;;;;;;;4.85;0.73;;;9.00;74.90;;;;;;4984460;28;20041;-95
2021/12/08 04:20:46;;;;;;;9.95;1.02;;;9.00;74.80;;;;;;4990153;28;20050;-95
2021/12/08 04:23:14;;;;;;;;;;;9.00;74.80;;;;;;4973107;28;20112;-95
2021/12/08 04:25:48;;;;;;;4.80;0.70;;;9.10;75.00;;;;;;4986455;28;19924;-96
2021/12/08 04:28:23;;;;;;;6.97;0.88;;;9.40;75.10;;;;;;4985867;28;20034;-95
2021/12/08 04:30:58;;;;;;;5.00;0.80;;;9.00;74.90;;;;;;4992019;28;20037;-95
2021/12/08 04:33:25;;;;;;;3.78;0.85;;;8.90;74.90;;;;;;4984654;28;20507;-96
2021/12/08 04:35:53;;;;;;;4.15;0.73;;;8.90;74.90;;;;;;4991572;28;20038;-95
2021/12/08 04:38:33;;;;;;;8.77;1.83;;;8.90;75.00;;;;;;4973772;28;20118;-95
2021/12/08 04:41:07;;;;;;;5.40;1.02;;;8.90;74.90;;;;;;4965392;28;20034;-92
2021/12/08 04:44:18;;;;;;;2.90;0.90;;;8.80;74.90;;;;;;4963888;28;20587;-92
2021/12/08 04:46:59;;;;;;;;;;;8.90;75.00;;;;;;5004443;28;20446;-94
2021/12/08 04:52:31;;;;;;;4.07;0.73;;;9.00;75.10;;;;;;4993467;28;20091;-94
2021/12/08 05:06:36;;;;;;;3.67;0.60;;;9.10;75.20;;;;;;5003345;28;20029;-91
2021/12/08 05:09:09;;;;;;;2.83;0.73;;;8.80;75.00;;;;;;5003432;28;20034;-94
2021/12/08 05:11:41;;;;;;;8.05;1.00;;;8.80;75.00;;;;;;4979181;28;21440;-91
2021/12/08 05:14:15;;;;;;;4.32;0.77;;;8.80;75.00;;;;;;5007864;28;20033;-94
2021/12/08 05:16:45;;;;;;;6.28;1.00;;;9.30;75.20;;;;;;4986147;28;20026;-95
2021/12/08 05:19:17;;;;;;;5.28;1.38;;;8.80;74.90;;;;;;4976655;28;20518;-96
2021/12/08 05:21:55;;;;;;;4.45;0.95;;;8.60;74.70;;;;;;4989034;28;20034;-90
2021/12/08 05:24:33;;;;;;;3.33;1.30;;;8.90;74.80;;;;;;5010613;28;20035;-95
2021/12/08 05:27:14;;;;;;;4.38;1.25;;;8.90;74.80;;;;;;5003040;28;20575;-92
2021/12/08 05:29:59;;;;;;;5.85;1.20;;;9.30;74.90;;;;;;5000632;28;20562;-94
2021/12/08 05:32:25;;;;;;;;;;;9.10;74.70;;;;;;4986396;28;20500;-91
2021/12/08 05:34:52;;;;;;;5.97;1.33;;;8.80;74.60;;;;;;4970492;28;19920;-96
2021/12/08 05:37:21;;;;;;;6.63;1.52;;;8.80;74.50;;;;;;5010315;28;20026;-95
2021/12/08 05:39:47;;;;;;;5.20;2.03;;;8.80;74.50;;;;;;4991550;28;20389;-94
2021/12/08 05:42:21;;;;;;;5.13;1.08;;;8.80;74.50;;;;;;4991505;28;20034;-94
2021/12/08 05:44:47;;;;;;;8.60;1.10;;;8.80;74.40;;;;;;4968916;28;20045;-96
2021/12/08 05:47:18;;;;;;;6.10;1.02;;;8.70;74.40;;;;;;4972159;28;20164;-94
2021/12/08 05:49:44;;;;;;;7.85;1.20;;;8.90;74.40;;;;;;4989791;28;20507;-91
2021/12/08 05:52:11;;;;;;;4.82;1.25;;;8.70;74.40;;;;;;4995389;28;20041;-94
2021/12/08 05:54:41;;;;;;;3.92;1.00;;;9.10;74.60;;;;;;4992210;28;20037;-95
2021/12/08 05:57:15;;;;;;;3.40;0.93;;;8.60;74.40;;;;;;4977102;28;20021;-96
2021/12/08 05:59:43;;;;;;;5.68;1.60;;;8.60;74.40;;;;;;4973105;28;20037;-96
2021/12/08 06:02:21;;;;;;;5.35;1.88;;;8.60;74.50;;;;;;4998959;28;20121;-96
2021/12/08 06:04:47;;;;;;;11.55;2.50;;;8.60;74.50;;;;;;4995707;28;20237;-94
2021/12/08 06:07:14;;;;;;;5.55;1.45;;;8.60;74.60;;;;;;5010576;28;20054;-96
2021/12/08 06:09:40;;;;;;;8.52;1.75;;;9.10;74.90;;;;;;4991602;28;20030;-96
2021/12/08 06:12:09;;;;;;;8.48;1.88;;;8.90;74.80;;;;;;5005148;28;20025;-96
2021/12/08 06:14:35;;;;;;;7.15;1.38;;;8.60;74.60;;;;;;4977414;28;20511;-96
2021/12/08 06:17:10;;;;;;;3.50;1.35;;;8.60;74.60;;;;;;4996440;28;20054;-96
2021/12/08 06:19:40;;;;;;;7.53;2.30;;;8.90;74.80;;;;;;4989926;28;20054;-96
2021/12/08 06:22:07;;;;;;;11.02;3.25;;;8.90;74.80;;;;;;4975166;28;20038;-96
2021/12/08 06:24:34;;;;;;;13.93;2.15;;;8.60;74.60;;;;;;4991244;28;20115;-96
2021/12/08 06:27:00;;;;;;;12.50;3.70;;;8.50;74.60;;;;;;4990299;28;20060;-96
2021/12/08 06:29:26;;;;;;;10.02;3.28;;;8.50;74.60;;;;;;4988527;28;20586;-96
2021/12/08 06:31:56;;;;;;;16.25;4.03;;;8.60;74.70;;;;;;4986681;28;20030;-96
2021/12/08 06:34:23;;;;;;;10.80;3.72;;;8.70;74.70;;;;;;4989230;28;20026;-95
2021/12/08 06:37:01;;;;;;;7.60;2.33;;;8.50;74.50;;;;;;4991847;28;20042;-95
2021/12/08 06:39:36;;;;;;;8.93;3.20;;;8.50;74.40;;;;;;4970462;28;20124;-95
2021/12/08 06:42:23;;;;;;;6.82;2.47;;;8.60;74.40;;;;;;4989261;28;20036;-94
2021/12/08 06:44:52;;;;;;;12.00;1.90;;;8.50;74.30;;;;;;4969096;28;20463;-94
2021/12/08 06:47:22;;;;;;;8.88;2.33;;;8.50;74.30;;;;;;4990706;28;20116;-95
2021/12/08 06:49:54;;;;;;;8.52;3.33;;;8.50;74.30;;;;;;4965231;28;20034;-94
2021/12/08 06:52:28;;;;;;;24.90;6.68;;;8.50;74.40;;;;;;4978627;28;20024;-95
2021/12/08 06:55:09;;;;;;;39.33;13.52;;;8.50;74.30;;;;;;4976232;28;20121;-93
2021/12/08 06:57:56;;;;;;;21.20;7.53;;;8.60;74.40;;;;;;5011189;28;20041;-95
2021/12/08 07:00:56;;;;;;;27.33;11.00;;;8.50;74.30;;;;;;4975172;28;20030;-91
2021/12/08 07:04:06;;;;;;;15.30;5.38;;;8.60;74.40;;;;;;4988055;28;20030;-93
2021/12/08 07:09:26;;;;;;;7.68;2.13;;;8.50;74.30;;;;;;4988748;28;20041;-93
2021/12/08 07:11:55;;;;;;;6.25;1.45;;;8.50;74.30;;;;;;4999585;28;20046;-95
2021/12/08 07:14:23;;;;;;;5.95;1.67;;;8.80;74.50;;;;;;4991005;28;20042;-95
2021/12/08 07:16:55;;;;;;;9.13;1.90;;;8.50;74.20;;;;;;5009653;28;20074;-96
2021/12/08 07:19:34;;;;;;;10.77;2.10;;;8.50;74.20;;;;;;4991637;28;20638;-95
2021/12/08 07:22:04;;;;;;;9.85;2.47;;;8.70;74.30;;;;;;4966109;28;20034;-96
2021/12/08 07:24:35;;;;;;;11.48;2.03;;;8.50;74.20;;;;;;5005510;28;20021;-89
2021/12/08 07:27:11;;;;;;;4.70;1.45;;;8.50;74.20;;;;;;5005154;28;20037;-92
2021/12/08 07:29:40;;;;;;;7.72;1.90;;;8.50;74.20;;;;;;5001289;28;20038;-94
2021/12/08 07:32:16;;;;;;;7.13;1.65;;;8.40;74.10;;;;;;4987970;28;20037;-96
2021/12/08 07:34:43;;;;;;;7.88;1.90;;;8.40;74.10;;;;;;4966305;28;20049;-96
2021/12/08 07:37:16;;;;;;;5.88;1.52;;;8.50;74.70;;;;;;4987973;28;20047;-95
2021/12/08 07:39:55;;;;;;;6.88;1.88;;;8.60;74.20;;;;;;4988547;28;20057;-96
2021/12/08 07:42:29;;;;;;;6.28;1.30;;;8.40;74.10;;;;;;4991679;28;20083;-96
2021/12/08 07:44:59;;;;;;;5.50;1.73;;;8.80;74.30;;;;;;4986449;28;20132;-96
2021/12/08 07:47:27;;;;;;;7.25;1.83;;;8.30;74.00;;;;;;4984285;28;20049;-94
2021/12/08 07:50:05;;;;;;;9.02;2.03;;;8.40;74.20;;;;;;4975821;28;20026;-94
2021/12/08 07:52:37;;;;;;;7.57;2.15;;;8.60;74.30;;;;;;4987659;28;20101;-94
2021/12/08 07:55:27;;;;;;;10.18;2.90;;;8.50;74.30;;;;;;4967921;28;20127;-92
2021/12/08 07:57:53;;;;;;;9.73;2.45;;;8.30;74.20;;;;;;4966516;28;20033;-93
2021/12/08 08:00:36;;;;;;;10.10;2.50;;;8.40;74.30;;;;;;4968385;28;20042;-93
2021/12/08 08:03:04;;;;;;;9.23;1.58;;;8.30;74.20;;;;;;4986407;28;20042;-91
2021/12/08 08:05:32;;;;;;;4.75;1.35;;;8.30;74.20;;;;;;4986942;28;20034;-94
2021/12/08 08:08:06;;;;;;;7.13;1.90;;;8.90;74.60;;;;;;5001587;28;20049;-93
2021/12/08 08:10:40;;;;;;;9.30;1.30;;;8.20;74.20;;;;;;4986450;28;20124;-91
2021/12/08 08:13:08;;;;;;;4.15;1.20;;;8.30;74.30;;;;;;4996717;28;20095;-94
2021/12/08 08:15:42;;;;;;;11.20;2.20;;;8.50;74.50;;;;;;4986720;28;20033;-92
2021/12/08 08:18:10;;;;;;;5.63;2.15;;;8.20;74.30;;;;;;4993790;28;20522;-93
2021/12/08 08:20:44;;;;;;;6.68;1.88;;;8.20;74.50;;;;;;4976229;28;20148;-92
2021/12/08 08:23:10;;;;;;;8.70;1.52;;;8.20;74.40;;;;;;4970325;28;20128;-93
2021/12/08 08:25:41;;;;;;;9.85;2.05;;;8.70;74.70;;;;;;4982808;28;20157;-94
2021/12/08 08:28:09;;;;;;;8.35;2.15;;;8.30;74.40;;;;;;4968857;28;20044;-95
2021/12/08 08:31:05;;;;;;;12.63;3.60;;;8.40;74.40;;;;;;4972526;28;20112;-93
2021/12/08 08:33:33;;;;;;;7.63;3.08;;;8.30;74.30;;;;;;4980387;28;20050;-95
2021/12/08 08:36:06;;;;;;;39.35;16.27;;;8.30;74.40;;;;;;4989729;28;20053;-94
2021/12/08 08:38:42;;;;;;;15.27;5.15;;;8.60;74.60;;;;;;4997537;28;20034;-93
2021/12/08 08:41:37;;;;;;;16.58;5.05;;;8.30;74.50;;;;;;4969229;28;20469;-94
2021/12/08 08:44:10;;;;;;;21.90;9.35;;;8.40;74.60;;;;;;4987551;28;20046;-90
2021/12/08 08:46:42;;;;;;;10.80;3.65;;;8.40;74.60;;;;;;4964993;28;20030;-93
2021/12/08 08:49:14;;;;;;;32.00;13.02;;;8.40;74.70;;;;;;4992671;28;20038;-94
2021/12/08 08:52:11;;;;;;;9.15;3.08;;;8.50;74.70;;;;;;4973132;28;20025;-92
2021/12/08 08:54:41;;;;;;;11.07;2.70;;;8.60;74.70;;;;;;4974010;28;20042;-92
2021/12/08 08:57:35;;;;;;;13.20;3.50;;;8.60;74.50;;;;;;4973633;28;20446;-93
2021/12/08 09:00:21;;;;;;;10.45;2.85;;;8.60;74.40;;;;;;4991113;28;20095;-93
2021/12/08 09:02:50;;;;;;;7.38;1.80;;;8.60;74.30;;;;;;4978204;28;20052;-93
2021/12/08 09:05:30;;;;;;;7.57;2.13;;;8.70;74.30;;;;;;5004815;28;20089;-94
2021/12/08 09:07:58;;;;;;;6.95;1.92;;;8.70;74.20;;;;;;4970060;28;20029;-92
2021/12/08 09:10:36;;;;;;;8.77;2.92;;;9.20;74.50;;;;;;4975368;28;20104;-93
2021/12/08 09:13:16;;;;;;;5.15;2.20;;;8.70;74.20;;;;;;4975853;28;20498;-93
2021/12/08 09:15:51;;;;;;;6.35;2.75;;;9.20;74.50;;;;;;4983155;28;20284;-94
2021/12/08 09:18:19;;;;;;;;;;;8.70;74.30;;;;;;5020224;28;20080;-93
2021/12/08 09:20:58;;;;;;;17.00;6.07;;;8.70;74.30;;;;;;5011672;28;20509;-90
2021/12/08 09:23:34;;;;;;;11.30;3.05;;;8.80;74.30;;;;;;4984258;28;20205;-94
2021/12/08 09:26:07;;;;;;;3.63;1.88;;;9.00;74.40;;;;;;5007642;28;20186;-92
2021/12/08 09:28:38;;;;;;;5.78;1.73;;;8.80;74.30;;;;;;5018154;28;20540;-91
2021/12/08 09:31:11;;;;;;;7.57;2.40;;;8.70;74.20;;;;;;5010880;28;20412;-93
2021/12/08 09:33:50;;;;;;;7.22;2.13;;;8.70;74.30;;;;;;5007569;28;20491;-94
2021/12/08 09:36:28;;;;;;;10.27;3.40;;;9.10;74.60;;;;;;5016636;28;20053;-94
2021/12/08 09:39:05;;;;;;;8.63;2.47;;;8.70;74.50;;;;;;4973014;28;20113;-95
2021/12/08 09:41:49;;;;;;;7.78;2.13;;;8.80;74.50;;;;;;4983030;28;20021;-95
2021/12/08 09:44:25;;;;;;;4.40;2.10;;;8.70;74.60;;;;;;4992810;28;20033;-95
2021/12/08 09:46:52;;;;;;;7.55;2.80;;;9.00;74.90;;;;;;4987830;28;20059;-96
2021/12/08 09:49:24;;;;;;;8.55;1.83;;;8.80;74.90;;;;;;4975538;28;20060;-96
2021/12/08 09:51:52;;;;;;;6.32;1.83;;;8.70;74.90;;;;;;4983518;28;20030;-96
2021/12/08 09:54:32;;;;;;;6.00;1.75;;;9.00;75.20;;;;;;5018133;28;20022;-96
2021/12/08 09:57:00;;;;;;;8.18;2.55;;;8.80;75.10;;;;;;4998717;28;20291;-96
2021/12/08 09:59:30;;;;;;;10.43;2.47;;;9.20;75.40;;;;;;5007125;28;20042;-96
2021/12/08 10:01:56;;;;;;;9.20;2.00;;;8.80;75.20;;;;;;4986328;28;20033;-96
2021/12/08 10:04:22;;;;;;;5.55;1.98;;;8.90;75.30;;;;;;4990556;28;20034;-96
2021/12/08 10:06:52;;;;;;;6.95;1.80;;;8.80;75.30;;;;;;4978586;28;20419;-96
2021/12/08 10:09:20;;;;;;;6.30;1.88;;;8.80;75.30;;;;;;4973742;28;20054;-96
2021/12/08 10:11:46;;;;;;;14.20;2.83;;;8.80;75.50;;;;;;5011325;28;20760;-97
2021/12/08 10:14:13;;;;;;;11.55;3.92;;;9.30;75.90;;;;;;4971209;28;20030;-95
2021/12/08 10:16:39;;;;;;;6.28;2.08;;;8.80;75.70;;;;;;4969270;28;20065;-96
2021/12/08 10:19:06;;;;;;;9.52;2.38;;;9.00;75.80;;;;;;4996409;28;20065;-95
2021/12/08 10:21:35;;;;;;;3.78;1.63;;;8.90;75.70;;;;;;4966326;28;20510;-95
2021/12/08 10:24:21;;;;;;;5.63;1.20;;;8.90;75.70;;;;;;4972065;28;20030;-94
2021/12/08 10:26:51;;;;;;;2.80;1.40;;;8.90;75.80;;;;;;5005536;28;20034;-93
2021/12/08 10:29:26;;;;;;;5.85;1.55;;;8.90;75.80;;;;;;4995113;28;20037;-95
2021/12/08 10:31:53;;;;;;;3.88;1.30;;;9.00;75.90;;;;;;4970324;28;20037;-94
2021/12/08 10:34:25;;;;;;;3.25;1.20;;;9.00;75.80;;;;;;4992609;28;20026;-95
2021/12/08 10:36:55;;;;;;;6.03;1.35;;;9.00;75.80;;;;;;4997852;28;20029;-96
2021/12/08 10:39:28;;;;;;;5.13;1.48;;;9.10;75.80;;;;;;4986743;28;20043;-96
2021/12/08 10:42:27;;;;;;;6.43;2.08;;;9.50;76.00;;;;;;5007206;28;20033;-96
2021/12/08 10:45:22;;;;;;;4.68;1.48;;;9.00;75.80;;;;;;5000465;28;20061;-96
2021/12/08 10:47:53;;;;;;;6.00;1.88;;;9.00;76.00;;;;;;4940245;28;20570;-96
2021/12/08 10:56:07;;;;;;;6.82;2.00;;;9.40;75.80;;;;;;4961937;28;20299;-96
2021/12/08 10:58:36;;;;;;;4.55;2.47;;;9.10;75.70;;;;;;4952913;28;20038;-95
2021/12/08 11:01:17;;;;;;;11.38;3.45;;;9.60;76.00;;;;;;4952510;28;20042;-96
2021/12/08 11:03:44;;;;;;;16.00;4.90;;;9.10;75.80;;;;;;4960520;28;20046;-96
2021/12/08 11:06:15;;;;;;;12.25;4.80;;;9.40;75.90;;;;;;4955463;28;20056;-89
2021/12/08 11:08:46;;;;;;;15.43;4.82;;;9.40;76.50;;;;;;4955015;28;20053;-94
2021/12/08 11:11:13;;;;;;;12.95;4.03;;;9.10;75.80;;;;;;4937276;28;20043;-90
2021/12/08 11:13:50;;;;;;;8.05;2.60;;;9.20;75.70;;;;;;4957925;28;20041;-93
2021/12/08 11:16:27;;;;;;;9.57;4.22;;;9.20;75.70;;;;;;4948309;28;20042;-88
2021/12/08 11:19:04;;;;;;;10.50;3.90;;;9.20;75.60;;;;;;4965346;28;20076;-90
2021/12/08 11:21:37;;;;;;;10.30;3.53;;;9.20;75.60;;;;;;4987098;28;20045;-95
2021/12/08 11:24:30;;;;;;;8.32;3.45;;;9.20;75.50;;;;;;4977732;28;20037;-95
2021/12/08 11:26:57;;;;;;;8.48;2.40;;;9.70;75.90;;;;;;4970867;28;20058;-95
2021/12/08 11:29:26;;;;;;;8.57;1.85;;;9.20;75.60;;;;;;5002206;28;20031;-91
2021/12/08 11:32:05;;;;;;;14.05;4.03;;;9.20;75.70;;;;;;5029671;28;20037;-93
2021/12/08 11:34:35;;;;;;;20.08;5.30;;;9.30;75.70;;;;;;5004678;28;20059;-95
2021/12/08 11:37:16;;;;;;;8.57;3.72;;;9.30;75.60;;;;;;4979636;28;20053;-94
2021/12/08 11:39:52;;;;;;;13.90;3.38;;;9.30;75.70;;;;;;4972493;28;20120;-95
2021/12/08 11:42:22;;;;;;;8.77;2.88;;;9.30;75.60;;;;;;4990336;28;20034;-96
2021/12/08 11:44:55;;;;;;;3.88;1.48;;;9.60;75.70;;;;;;4985138;28;20037;-96
2021/12/08 11:47:40;;;;;;;23.02;6.45;;;9.30;75.50;;;;;;4975225;28;20034;-96
2021/12/08 11:50:19;;;;;;;8.80;2.53;;;9.40;75.50;;;;;;4970611;28;20042;-96
2021/12/08 11:52:52;;;;;;;11.77;4.03;;;9.40;75.50;;;;;;4985220;28;20056;-96
2021/12/08 11:55:21;;;;;;;12.50;3.40;;;9.60;75.50;;;;;;5012487;28;20307;-93
2021/12/08 11:57:53;;;;;;;14.23;4.60;;;9.40;75.30;;;;;;4972796;28;20033;-92
2021/12/08 12:00:34;;;;;;;19.33;4.82;;;10.00;75.60;;;;;;4997379;28;20033;-96
2021/12/08 12:03:10;;;;;;;16.13;5.93;;;9.40;75.20;;;;;;4991043;28;20030;-96
2021/12/08 12:05:45;;;;;;;7.03;2.40;;;9.40;75.30;;;;;;4974809;28;20136;-92
2021/12/08 12:08:14;;;;;;;37.55;7.57;;;9.50;75.40;;;;;;4987475;28;20479;-95
2021/12/08 12:10:49;;;;;;;34.33;7.30;;;9.40;75.30;;;;;;4984392;28;20049;-96
2021/12/08 12:13:15;;;;;;;29.50;7.28;;;9.70;75.50;;;;;;5005246;28;20037;-95
2021/12/08 12:15:47;;;;;;;16.42;5.07;;;9.50;75.30;;;;;;4975782;28;20073;-95
2021/12/08 12:18:17;;;;;;;42.47;14.93;;;9.50;75.30;;;;;;4998288;28;20050;-93
2021/12/08 12:21:24;;;;;;;19.88;7.70;;;9.50;75.70;;;;;;4972621;28;20099;-93
2021/12/08 12:24:41;;;;;;;11.02;4.10;;;9.70;75.00;;;;;;4969878;28;20050;-91
2021/12/08 12:27:37;;;;;;;17.58;6.90;;;9.60;74.90;;;;;;4989529;28;20049;-92
2021/12/08 12:30:12;;;;;;;7.10;2.22;;;9.50;74.80;;;;;;5002751;28;20042;-94
2021/12/08 12:32:53;;;;;;;13.68;5.60;;;9.50;74.70;;;;;;5004271;28;20034;-90
2021/12/08 12:35:24;;;;;;;5.30;1.98;;;9.60;74.80;;;;;;4996499;28;20040;-95
2021/12/08 12:38:08;;;;;;;11.95;4.53;;;9.60;74.80;;;;;;4973238;28;20021;-91
2021/12/08 12:40:47;;;;;;;14.60;3.03;;;9.60;74.60;;;;;;4985155;28;20038;-94
2021/12/08 12:43:33;;;;;;;8.93;2.45;;;9.60;74.30;;;;;;4972868;28;20022;-93
2021/12/08 12:46:07;;;;;;;8.27;2.33;;;9.60;74.30;;;;;;4978729;28;20072;-93
2021/12/08 12:48:37;;;;;;;3.72;1.48;;;9.60;74.30;;;;;;4973102;28;20106;-90
2021/12/08 12:51:11;;;;;;;3.25;1.63;;;9.90;74.50;;;;;;4988984;28;20038;-92
2021/12/08 12:53:46;;;;;;;5.10;1.37;;;9.60;74.20;;;;;;4981515;28;20076;-93
2021/12/08 12:56:26;;;;;;;4.70;1.17;;;9.60;74.10;;;;;;4998474;28;20272;-94
2021/12/08 12:58:53;;;;;;;2.70;1.50;;;9.60;74.10;;;;;;5022424;28;20034;-92
2021/12/08 13:01:33;;;;;;;7.00;3.25;;;9.60;74.10;;;;;;4996797;28;20033;-93
2021/12/08 13:04:12;;;;;;;5.72;2.15;;;10.00;74.30;;;;;;4971566;28;20114;-95
2021/12/08 13:06:56;;;;;;;6.28;1.80;;;9.60;74.10;;;;;;4989707;28;20042;-94
2021/12/08 13:09:41;;;;;;;11.63;2.75;;;9.60;74.00;;;;;;4999153;28;20038;-90
2021/12/08 13:12:24;;;;;;;2.88;1.40;;;9.60;74.00;;;;;;4995361;28;20168;-90
2021/12/08 13:15:21;;;;;;;2.35;1.50;;;9.60;73.90;;;;;;5008342;28;20021;-96
2021/12/08 13:18:12;;;;;;;5.50;2.55;;;9.70;73.90;;;;;;4975764;28;20121;-96
2021/12/08 13:20:43;;;;;;;9.30;3.63;;;9.70;73.80;;;;;;4988730;28;20052;-91
2021/12/08 13:23:11;;;;;;;6.30;2.42;;;10.30;74.00;;;;;;4984406;28;20062;-91
2021/12/08 13:28:30;;;;;;;3.95;1.75;;;9.70;73.30;;;;;;5008656;28;20435;-94
2021/12/08 13:31:56;;;;;;;1.98;1.13;;;9.70;73.00;;;;;;5001592;28;20044;-91
2021/12/08 13:34:24;;;;;;;3.05;1.45;;;9.70;73.10;;;;;;4989382;28;20622;-93
2021/12/08 13:36:49;;;;;;;3.30;1.70;;;9.70;73.30;;;;;;4987823;28;20034;-96
2021/12/08 13:39:21;;;;;;;4.57;1.83;;;9.70;73.30;;;;;;4991499;28;20456;-96
2021/12/08 13:42:09;;;;;;;3.35;1.30;;;10.00;73.40;;;;;;5002257;28;20423;-96
2021/12/08 13:44:38;;;;;;;6.57;1.45;;;9.60;73.20;;;;;;4999229;28;20506;-95
2021/12/08 13:47:29;;;;;;;7.75;2.30;;;9.70;73.40;;;;;;4973285;28;20785;-96
2021/12/08 13:50:19;;;;;;;5.35;1.52;;;10.20;73.70;;;;;;4973744;28;20036;-96
2021/12/08 13:53:10;;;;;;;4.40;1.60;;;9.70;73.10;;;;;;4999751;28;20030;-96
2021/12/08 13:55:41;;;;;;;7.20;2.30;;;9.70;73.10;;;;;;4980707;28;20545;-93
2021/12/08 13:58:17;;;;;;;6.20;1.75;;;9.70;73.20;;;;;;5011547;28;20052;-96
2021/12/08 14:00:54;;;;;;;4.00;1.85;;;9.70;73.10;;;;;;4966929;28;20045;-94
2021/12/08 14:03:41;;;;;;;5.57;2.13;;;9.80;73.10;;;;;;4986895;28;20125;-95
2021/12/08 14:06:07;;;;;;;5.90;2.33;;;10.00;73.20;;;;;;4969117;28;20046;-95
2021/12/08 14:08:43;;;;;;;10.35;2.65;;;9.80;73.10;;;;;;4988681;28;20553;-95
2021/12/08 14:11:15;;;;;;;6.13;2.17;;;9.80;73.00;;;;;;4996811;28;20042;-96
2021/12/08 14:13:48;;;;;;;5.93;2.45;;;9.80;73.00;;;;;;4994500;28;20037;-96